sensor_id;sensor_type;location;lat;lon;timestamp;P1;durP1;ratioP1;P2;durP2;ratioP2
74204;SDS011;62564;52.678;4.900;2023-05-10T00:01:59;4.77;;;3.30;;
74204;SDS011;62564;52.678;4.900;2023-05-10T00:04:24;4.85;;;3.53;;
74204;SDS011;62564;52.678;4.900;2023-05-10T00:06:52;5.30;;;4.07;;
74204;SDS011;62564;52.678;4.900;2023-05-10T00:09:18;5.28;;;4.00;;
74204;SDS011;62564;52.678;4.900;2023-05-10T00:11:43;5.25;;;3.78;;
74204;SDS011;62564;52.678;4.900;2023-05-10T00:14:08;4.23;;;3.07;;
74204;SDS011;62564;52.678;4.900;2023-05-10T00:16:34;4.43;;;3.37;;
74204;SDS011;62564;52.678;4.900;2023-05-10T00:18:59;5.17;;;3.97;;
74204;SDS011;62564;52.678;4.900;2023-05-10T00:21:24;4.80;;;3.67;;
74204;SDS011;62564;52.678;4.900;2023-05-10T00:23:50;5.28;;;3.50;;
74204;SDS011;62564;52.678;4.900;2023-05-10T00:26:15;5.97;;;3.53;;
74204;SDS011;62564;52.678;4.900;2023-05-10T00:28:41;5.00;;;4.15;;
74204;SDS011;62564;52.678;4.900;2023-05-10T00:31:06;5.60;;;3.67;;
74204;SDS011;62564;52.678;4.900;2023-05-10T00:33:32;5.95;;;3.90;;
74204;SDS011;62564;52.678;4.900;2023-05-10T00:35:57;5.47;;;3.90;;
74204;SDS011;62564;52.678;4.900;2023-05-10T00:38:22;5.23;;;3.70;;
74204;SDS011;62564;52.678;4.900;2023-05-10T00:40:48;5.87;;;3.53;;
74204;SDS011;62564;52.678;4.900;2023-05-10T00:43:13;4.80;;;3.20;;
74204;SDS011;62564;52.678;4.900;2023-05-10T00:45:39;5.10;;;3.75;;
74204;SDS011;62564;52.678;4.900;2023-05-10T00:48:05;5.18;;;3.40;;
74204;SDS011;62564;52.678;4.900;2023-05-10T00:50:30;6.15;;;4.15;;
74204;SDS011;62564;52.678;4.900;2023-05-10T00:52:57;5.78;;;3.95;;
74204;SDS011;62564;52.678;4.900;2023-05-10T00:55:23;5.55;;;3.35;;
74204;SDS011;62564;52.678;4.900;2023-05-10T00:57:49;5.55;;;3.53;;
74204;SDS011;62564;52.678;4.900;2023-05-10T01:00:14;5.50;;;3.53;;
74204;SDS011;62564;52.678;4.900;2023-05-10T01:02:43;5.60;;;3.13;;
74204;SDS011;62564;52.678;4.900;2023-05-10T01:05:09;4.80;;;3.63;;
74204;SDS011;62564;52.678;4.900;2023-05-10T01:07:34;5.57;;;3.10;;
74204;SDS011;62564;52.678;4.900;2023-05-10T01:10:00;6.25;;;3.53;;
74204;SDS011;62564;52.678;4.900;2023-05-10T01:12:25;5.80;;;3.78;;
74204;SDS011;62564;52.678;4.900;2023-05-10T01:14:51;5.00;;;3.15;;
74204;SDS011;62564;52.678;4.900;2023-05-10T01:17:16;4.75;;;3.08;;
74204;SDS011;62564;52.678;4.900;2023-05-10T01:19:42;5.00;;;3.72;;
74204;SDS011;62564;52.678;4.900;2023-05-10T01:22:25;5.37;;;3.30;;
74204;SDS011;62564;52.678;4.900;2023-05-10T01:35:49;7.50;;;4.45;;
74204;SDS011;62564;52.678;4.900;2023-05-10T01:41:12;6.25;;;3.60;;
74204;SDS011;62564;52.678;4.900;2023-05-10T01:47:05;5.65;;;4.10;;
74204;SDS011;62564;52.678;4.900;2023-05-10T01:49:43;6.03;;;3.88;;
74204;SDS011;62564;52.678;4.900;2023-05-10T01:52:12;5.43;;;3.75;;
74204;SDS011;62564;52.678;4.900;2023-05-10T01:54:41;7.45;;;5.70;;
74204;SDS011;62564;52.678;4.900;2023-05-10T01:57:08;6.60;;;4.10;;
74204;SDS011;62564;52.678;4.900;2023-05-10T01:59:35;5.55;;;3.78;;
74204;SDS011;62564;52.678;4.900;2023-05-10T02:02:01;6.15;;;4.22;;
74204;SDS011;62564;52.678;4.900;2023-05-10T02:04:27;5.80;;;3.22;;
74204;SDS011;62564;52.678;4.900;2023-05-10T02:06:53;6.55;;;4.18;;
74204;SDS011;62564;52.678;4.900;2023-05-10T02:09:20;6.72;;;4.85;;
74204;SDS011;62564;52.678;4.900;2023-05-10T02:11:45;5.93;;;4.07;;
74204;SDS011;62564;52.678;4.900;2023-05-10T02:14:13;5.95;;;3.90;;
74204;SDS011;62564;52.678;4.900;2023-05-10T02:16:39;7.05;;;3.85;;
74204;SDS011;62564;52.678;4.900;2023-05-10T02:19:05;6.43;;;4.10;;
74204;SDS011;62564;52.678;4.900;2023-05-10T02:21:31;7.15;;;4.88;;
74204;SDS011;62564;52.678;4.900;2023-05-10T02:23:57;5.93;;;3.50;;
74204;SDS011;62564;52.678;4.900;2023-05-10T02:26:24;7.13;;;4.28;;
74204;SDS011;62564;52.678;4.900;2023-05-10T02:28:50;7.28;;;4.13;;
74204;SDS011;62564;52.678;4.900;2023-05-10T02:31:17;7.65;;;4.47;;
74204;SDS011;62564;52.678;4.900;2023-05-10T02:33:43;5.55;;;4.05;;
74204;SDS011;62564;52.678;4.900;2023-05-10T02:36:09;5.43;;;3.83;;
74204;SDS011;62564;52.678;4.900;2023-05-10T02:38:35;5.07;;;3.17;;
74204;SDS011;62564;52.678;4.900;2023-05-10T02:41:01;5.72;;;4.05;;
74204;SDS011;62564;52.678;4.900;2023-05-10T02:43:28;5.47;;;3.95;;
74204;SDS011;62564;52.678;4.900;2023-05-10T02:45:55;4.88;;;3.40;;
74204;SDS011;62564;52.678;4.900;2023-05-10T02:48:20;5.55;;;4.15;;
74204;SDS011;62564;52.678;4.900;2023-05-10T02:50:46;6.10;;;4.15;;
74204;SDS011;62564;52.678;4.900;2023-05-10T02:53:18;6.78;;;4.60;;
74204;SDS011;62564;52.678;4.900;2023-05-10T02:55:49;6.55;;;3.47;;
74204;SDS011;62564;52.678;4.900;2023-05-10T02:58:16;5.95;;;3.92;;
74204;SDS011;62564;52.678;4.900;2023-05-10T03:00:44;4.88;;;3.67;;
74204;SDS011;62564;52.678;4.900;2023-05-10T03:03:10;6.30;;;4.13;;
74204;SDS011;62564;52.678;4.900;2023-05-10T03:05:35;6.13;;;4.17;;
74204;SDS011;62564;52.678;4.900;2023-05-10T03:08:00;6.00;;;3.90;;
74204;SDS011;62564;52.678;4.900;2023-05-10T03:10:29;5.10;;;4.45;;
74204;SDS011;62564;52.678;4.900;2023-05-10T03:13:05;5.82;;;3.92;;
74204;SDS011;62564;52.678;4.900;2023-05-10T03:15:42;5.00;;;3.72;;
74204;SDS011;62564;52.678;4.900;2023-05-10T03:18:23;5.32;;;3.35;;
74204;SDS011;62564;52.678;4.900;2023-05-10T03:20:57;5.72;;;4.10;;
74204;SDS011;62564;52.678;4.900;2023-05-10T03:23:30;5.47;;;3.58;;
74204;SDS011;62564;52.678;4.900;2023-05-10T03:25:59;7.07;;;4.68;;
74204;SDS011;62564;52.678;4.900;2023-05-10T03:28:25;5.80;;;4.35;;
74204;SDS011;62564;52.678;4.900;2023-05-10T03:30:52;5.85;;;4.60;;
74204;SDS011;62564;52.678;4.900;2023-05-10T03:33:18;6.88;;;3.75;;
74204;SDS011;62564;52.678;4.900;2023-05-10T03:35:44;6.68;;;4.85;;
74204;SDS011;62564;52.678;4.900;2023-05-10T03:38:10;6.70;;;4.60;;
74204;SDS011;62564;52.678;4.900;2023-05-10T03:40:36;5.70;;;3.92;;
74204;SDS011;62564;52.678;4.900;2023-05-10T03:43:02;5.88;;;4.00;;
74204;SDS011;62564;52.678;4.900;2023-05-10T03:45:27;7.40;;;4.93;;
74204;SDS011;62564;52.678;4.900;2023-05-10T03:47:53;6.25;;;4.03;;
74204;SDS011;62564;52.678;4.900;2023-05-10T03:50:18;7.32;;;4.43;;
74204;SDS011;62564;52.678;4.900;2023-05-10T03:52:44;5.75;;;3.80;;
74204;SDS011;62564;52.678;4.900;2023-05-10T03:55:10;5.38;;;3.60;;
74204;SDS011;62564;52.678;4.900;2023-05-10T03:57:35;5.72;;;4.28;;
74204;SDS011;62564;52.678;4.900;2023-05-10T04:00:01;6.28;;;4.28;;
74204;SDS011;62564;52.678;4.900;2023-05-10T04:02:26;6.25;;;3.97;;
74204;SDS011;62564;52.678;4.900;2023-05-10T04:04:51;5.90;;;4.13;;
74204;SDS011;62564;52.678;4.900;2023-05-10T04:07:17;6.37;;;4.37;;
74204;SDS011;62564;52.678;4.900;2023-05-10T04:09:43;6.63;;;4.63;;
74204;SDS011;62564;52.678;4.900;2023-05-10T04:12:08;6.35;;;4.10;;
74204;SDS011;62564;52.678;4.900;2023-05-10T04:14:34;7.28;;;5.20;;
74204;SDS011;62564;52.678;4.900;2023-05-10T04:16:59;6.37;;;4.93;;
74204;SDS011;62564;52.678;4.900;2023-05-10T04:19:28;6.20;;;4.47;;
74204;SDS011;62564;52.678;4.900;2023-05-10T04:21:54;5.38;;;3.63;;
74204;SDS011;62564;52.678;4.900;2023-05-10T04:24:19;5.77;;;3.93;;
74204;SDS011;62564;52.678;4.900;2023-05-10T04:26:44;6.90;;;3.90;;
74204;SDS011;62564;52.678;4.900;2023-05-10T04:29:10;6.20;;;4.32;;
74204;SDS011;62564;52.678;4.900;2023-05-10T04:31:35;5.65;;;3.55;;
74204;SDS011;62564;52.678;4.900;2023-05-10T04:34:01;5.53;;;3.63;;
74204;SDS011;62564;52.678;4.900;2023-05-10T04:36:26;5.07;;;3.70;;
74204;SDS011;62564;52.678;4.900;2023-05-10T04:38:52;5.60;;;3.40;;
74204;SDS011;62564;52.678;4.900;2023-05-10T04:41:17;4.30;;;2.80;;
74204;SDS011;62564;52.678;4.900;2023-05-10T04:43:43;4.47;;;2.83;;
74204;SDS011;62564;52.678;4.900;2023-05-10T04:46:08;4.97;;;2.70;;
74204;SDS011;62564;52.678;4.900;2023-05-10T04:48:33;4.20;;;2.50;;
74204;SDS011;62564;52.678;4.900;2023-05-10T04:50:59;4.03;;;2.50;;
74204;SDS011;62564;52.678;4.900;2023-05-10T04:53:24;4.47;;;2.25;;
74204;SDS011;62564;52.678;4.900;2023-05-10T04:55:49;4.30;;;2.22;;
74204;SDS011;62564;52.678;4.900;2023-05-10T04:58:15;4.60;;;2.93;;
74204;SDS011;62564;52.678;4.900;2023-05-10T05:00:40;4.93;;;2.47;;
74204;SDS011;62564;52.678;4.900;2023-05-10T05:03:06;4.85;;;2.35;;
74204;SDS011;62564;52.678;4.900;2023-05-10T05:05:31;4.27;;;2.73;;
74204;SDS011;62564;52.678;4.900;2023-05-10T05:07:57;4.55;;;2.33;;
74204;SDS011;62564;52.678;4.900;2023-05-10T05:10:22;4.53;;;2.53;;
74204;SDS011;62564;52.678;4.900;2023-05-10T05:12:47;4.17;;;2.50;;
74204;SDS011;62564;52.678;4.900;2023-05-10T05:15:13;3.70;;;2.20;;
74204;SDS011;62564;52.678;4.900;2023-05-10T05:17:38;4.65;;;2.70;;
74204;SDS011;62564;52.678;4.900;2023-05-10T05:20:03;3.37;;;1.93;;
74204;SDS011;62564;52.678;4.900;2023-05-10T05:22:29;3.22;;;1.88;;
74204;SDS011;62564;52.678;4.900;2023-05-10T05:24:55;3.92;;;2.20;;
74204;SDS011;62564;52.678;4.900;2023-05-10T05:27:20;3.33;;;1.63;;
74204;SDS011;62564;52.678;4.900;2023-05-10T05:29:49;4.50;;;2.78;;
74204;SDS011;62564;52.678;4.900;2023-05-10T05:32:15;4.72;;;2.28;;
74204;SDS011;62564;52.678;4.900;2023-05-10T05:34:40;3.60;;;1.65;;
74204;SDS011;62564;52.678;4.900;2023-05-10T05:37:05;3.80;;;2.53;;
74204;SDS011;62564;52.678;4.900;2023-05-10T05:39:31;3.55;;;2.20;;
74204;SDS011;62564;52.678;4.900;2023-05-10T05:41:56;3.30;;;2.17;;
74204;SDS011;62564;52.678;4.900;2023-05-10T05:44:21;3.60;;;1.80;;
74204;SDS011;62564;52.678;4.900;2023-05-10T05:46:47;3.00;;;1.60;;
74204;SDS011;62564;52.678;4.900;2023-05-10T05:49:12;4.60;;;1.83;;
74204;SDS011;62564;52.678;4.900;2023-05-10T05:51:37;3.10;;;2.03;;
74204;SDS011;62564;52.678;4.900;2023-05-10T05:54:03;3.95;;;1.75;;
74204;SDS011;62564;52.678;4.900;2023-05-10T05:56:29;3.00;;;2.05;;
74204;SDS011;62564;52.678;4.900;2023-05-10T05:58:54;3.03;;;1.75;;
74204;SDS011;62564;52.678;4.900;2023-05-10T06:01:20;3.00;;;1.90;;
74204;SDS011;62564;52.678;4.900;2023-05-10T06:03:46;2.33;;;1.45;;
74204;SDS011;62564;52.678;4.900;2023-05-10T06:06:11;2.30;;;1.23;;
74204;SDS011;62564;52.678;4.900;2023-05-10T06:08:37;3.28;;;1.42;;
74204;SDS011;62564;52.678;4.900;2023-05-10T06:11:02;3.57;;;1.53;;
74204;SDS011;62564;52.678;4.900;2023-05-10T06:13:29;5.85;;;2.30;;
74204;SDS011;62564;52.678;4.900;2023-05-10T06:15:57;6.43;;;2.20;;
74204;SDS011;62564;52.678;4.900;2023-05-10T06:18:22;8.32;;;2.38;;
74204;SDS011;62564;52.678;4.900;2023-05-10T06:20:49;7.40;;;2.50;;
74204;SDS011;62564;52.678;4.900;2023-05-10T06:23:14;7.45;;;1.73;;
74204;SDS011;62564;52.678;4.900;2023-05-10T06:25:39;5.60;;;1.97;;
74204;SDS011;62564;52.678;4.900;2023-05-10T06:28:05;5.43;;;2.38;;
74204;SDS011;62564;52.678;4.900;2023-05-10T06:30:30;5.90;;;1.52;;
74204;SDS011;62564;52.678;4.900;2023-05-10T06:32:56;4.22;;;1.77;;
74204;SDS011;62564;52.678;4.900;2023-05-10T06:35:21;6.47;;;1.42;;
74204;SDS011;62564;52.678;4.900;2023-05-10T06:37:47;5.45;;;2.30;;
74204;SDS011;62564;52.678;4.900;2023-05-10T06:40:12;4.30;;;1.90;;
74204;SDS011;62564;52.678;4.900;2023-05-10T06:42:38;3.63;;;1.70;;
74204;SDS011;62564;52.678;4.900;2023-05-10T06:45:03;3.72;;;1.13;;
74204;SDS011;62564;52.678;4.900;2023-05-10T06:47:29;5.50;;;1.42;;
74204;SDS011;62564;52.678;4.900;2023-05-10T06:49:55;4.03;;;2.63;;
74204;SDS011;62564;52.678;4.900;2023-05-10T06:52:20;3.70;;;1.55;;
74204;SDS011;62564;52.678;4.900;2023-05-10T06:54:46;9.48;;;1.67;;
74204;SDS011;62564;52.678;4.900;2023-05-10T06:57:11;3.13;;;1.63;;
74204;SDS011;62564;52.678;4.900;2023-05-10T06:59:36;4.18;;;1.52;;
74204;SDS011;62564;52.678;4.900;2023-05-10T07:02:02;3.47;;;1.85;;
74204;SDS011;62564;52.678;4.900;2023-05-10T07:04:27;3.45;;;1.45;;
74204;SDS011;62564;52.678;4.900;2023-05-10T07:06:52;4.33;;;1.23;;
74204;SDS011;62564;52.678;4.900;2023-05-10T07:09:18;4.40;;;1.60;;
74204;SDS011;62564;52.678;4.900;2023-05-10T07:11:43;3.50;;;1.50;;
74204;SDS011;62564;52.678;4.900;2023-05-10T07:14:08;5.00;;;4.50;;
74204;SDS011;62564;52.678;4.900;2023-05-10T07:16:34;4.35;;;1.60;;
74204;SDS011;62564;52.678;4.900;2023-05-10T07:18:59;3.73;;;1.40;;
74204;SDS011;62564;52.678;4.900;2023-05-10T07:21:25;3.45;;;2.97;;
74204;SDS011;62564;52.678;4.900;2023-05-10T07:23:53;2.92;;;1.30;;
74204;SDS011;62564;52.678;4.900;2023-05-10T07:26:18;3.60;;;1.47;;
74204;SDS011;62564;52.678;4.900;2023-05-10T07:28:44;3.70;;;1.70;;
74204;SDS011;62564;52.678;4.900;2023-05-10T07:31:09;4.00;;;1.30;;
74204;SDS011;62564;52.678;4.900;2023-05-10T07:33:35;3.00;;;1.50;;
74204;SDS011;62564;52.678;4.900;2023-05-10T07:36:00;3.13;;;1.40;;
74204;SDS011;62564;52.678;4.900;2023-05-10T07:38:25;3.78;;;1.73;;
74204;SDS011;62564;52.678;4.900;2023-05-10T07:40:50;2.43;;;0.97;;
74204;SDS011;62564;52.678;4.900;2023-05-10T07:43:16;3.20;;;1.27;;
74204;SDS011;62564;52.678;4.900;2023-05-10T07:45:41;4.00;;;1.37;;
74204;SDS011;62564;52.678;4.900;2023-05-10T07:48:07;2.10;;;0.95;;
74204;SDS011;62564;52.678;4.900;2023-05-10T07:50:32;3.30;;;1.70;;
74204;SDS011;62564;52.678;4.900;2023-05-10T07:52:57;4.13;;;1.50;;
74204;SDS011;62564;52.678;4.900;2023-05-10T07:55:23;3.60;;;1.10;;
74204;SDS011;62564;52.678;4.900;2023-05-10T07:57:48;3.45;;;1.33;;
74204;SDS011;62564;52.678;4.900;2023-05-10T08:00:15;2.17;;;0.82;;
74204;SDS011;62564;52.678;4.900;2023-05-10T08:02:42;3.55;;;1.30;;
74204;SDS011;62564;52.678;4.900;2023-05-10T08:05:07;2.33;;;1.03;;
74204;SDS011;62564;52.678;4.900;2023-05-10T08:07:33;3.08;;;1.08;;
74204;SDS011;62564;52.678;4.900;2023-05-10T08:09:58;2.95;;;1.20;;
74204;SDS011;62564;52.678;4.900;2023-05-10T08:12:24;2.25;;;1.35;;
74204;SDS011;62564;52.678;4.900;2023-05-10T08:14:49;2.83;;;1.43;;
74204;SDS011;62564;52.678;4.900;2023-05-10T08:17:14;2.80;;;1.30;;
74204;SDS011;62564;52.678;4.900;2023-05-10T08:19:39;2.00;;;0.87;;
74204;SDS011;62564;52.678;4.900;2023-05-10T08:22:05;2.60;;;1.50;;
74204;SDS011;62564;52.678;4.900;2023-05-10T08:24:30;2.28;;;0.90;;
74204;SDS011;62564;52.678;4.900;2023-05-10T08:26:56;3.03;;;1.30;;
74204;SDS011;62564;52.678;4.900;2023-05-10T08:29:21;2.13;;;0.93;;
74204;SDS011;62564;52.678;4.900;2023-05-10T08:31:46;2.43;;;1.07;;
74204;SDS011;62564;52.678;4.900;2023-05-10T08:34:11;2.47;;;1.00;;
74204;SDS011;62564;52.678;4.900;2023-05-10T08:36:37;2.33;;;0.80;;
74204;SDS011;62564;52.678;4.900;2023-05-10T08:39:02;2.20;;;0.90;;
74204;SDS011;62564;52.678;4.900;2023-05-10T08:41:28;2.22;;;0.80;;
74204;SDS011;62564;52.678;4.900;2023-05-10T08:43:53;2.78;;;0.90;;
74204;SDS011;62564;52.678;4.900;2023-05-10T08:46:20;2.83;;;0.80;;
74204;SDS011;62564;52.678;4.900;2023-05-10T08:48:47;2.90;;;1.58;;
74204;SDS011;62564;52.678;4.900;2023-05-10T08:51:13;2.95;;;1.35;;
74204;SDS011;62564;52.678;4.900;2023-05-10T08:53:41;2.95;;;1.35;;
74204;SDS011;62564;52.678;4.900;2023-05-10T08:56:06;2.10;;;1.25;;
74204;SDS011;62564;52.678;4.900;2023-05-10T08:58:32;3.33;;;1.27;;
74204;SDS011;62564;52.678;4.900;2023-05-10T09:00:57;1.95;;;1.15;;
74204;SDS011;62564;52.678;4.900;2023-05-10T09:03:23;2.58;;;1.50;;
74204;SDS011;62564;52.678;4.900;2023-05-10T09:05:48;2.97;;;1.30;;
74204;SDS011;62564;52.678;4.900;2023-05-10T09:08:13;3.55;;;2.10;;
74204;SDS011;62564;52.678;4.900;2023-05-10T09:10:41;3.08;;;1.40;;
74204;SDS011;62564;52.678;4.900;2023-05-10T09:13:08;3.13;;;1.85;;
74204;SDS011;62564;52.678;4.900;2023-05-10T09:15:35;3.13;;;1.33;;
74204;SDS011;62564;52.678;4.900;2023-05-10T09:18:00;2.95;;;1.38;;
74204;SDS011;62564;52.678;4.900;2023-05-10T09:20:27;2.40;;;1.17;;
74204;SDS011;62564;52.678;4.900;2023-05-10T09:22:52;3.58;;;1.10;;
74204;SDS011;62564;52.678;4.900;2023-05-10T09:25:18;2.73;;;1.03;;
74204;SDS011;62564;52.678;4.900;2023-05-10T09:27:44;2.35;;;1.00;;
74204;SDS011;62564;52.678;4.900;2023-05-10T09:30:11;2.95;;;1.40;;
74204;SDS011;62564;52.678;4.900;2023-05-10T09:32:41;3.53;;;2.08;;
74204;SDS011;62564;52.678;4.900;2023-05-10T09:37:34;2.78;;;1.50;;
74204;SDS011;62564;52.678;4.900;2023-05-10T09:39:59;3.23;;;1.53;;
74204;SDS011;62564;52.678;4.900;2023-05-10T09:42:24;3.22;;;1.35;;
74204;SDS011;62564;52.678;4.900;2023-05-10T09:44:50;3.03;;;1.02;;
74204;SDS011;62564;52.678;4.900;2023-05-10T09:47:18;4.13;;;1.33;;
74204;SDS011;62564;52.678;4.900;2023-05-10T09:49:44;2.58;;;1.10;;
74204;SDS011;62564;52.678;4.900;2023-05-10T09:52:15;2.88;;;1.25;;
74204;SDS011;62564;52.678;4.900;2023-05-10T09:54:42;2.90;;;1.57;;
74204;SDS011;62564;52.678;4.900;2023-05-10T09:57:18;4.35;;;1.35;;
74204;SDS011;62564;52.678;4.900;2023-05-10T09:59:45;3.78;;;2.00;;
74204;SDS011;62564;52.678;4.900;2023-05-10T10:02:12;2.65;;;1.08;;
74204;SDS011;62564;52.678;4.900;2023-05-10T10:04:40;3.38;;;1.73;;
74204;SDS011;62564;52.678;4.900;2023-05-10T10:07:06;2.83;;;1.90;;
74204;SDS011;62564;52.678;4.900;2023-05-10T10:09:33;3.47;;;1.85;;
74204;SDS011;62564;52.678;4.900;2023-05-10T10:11:59;3.28;;;1.65;;
74204;SDS011;62564;52.678;4.900;2023-05-10T10:14:25;3.30;;;1.67;;
74204;SDS011;62564;52.678;4.900;2023-05-10T10:16:51;2.92;;;1.27;;
74204;SDS011;62564;52.678;4.900;2023-05-10T10:19:17;4.03;;;2.25;;
74204;SDS011;62564;52.678;4.900;2023-05-10T10:21:43;3.17;;;1.70;;
74204;SDS011;62564;52.678;4.900;2023-05-10T10:24:08;3.83;;;1.23;;
74204;SDS011;62564;52.678;4.900;2023-05-10T10:26:34;4.85;;;1.58;;
74204;SDS011;62564;52.678;4.900;2023-05-10T10:31:36;3.38;;;1.50;;
74204;SDS011;62564;52.678;4.900;2023-05-10T10:34:06;2.70;;;1.55;;
74204;SDS011;62564;52.678;4.900;2023-05-10T10:36:40;3.72;;;1.92;;
74204;SDS011;62564;52.678;4.900;2023-05-10T10:39:10;3.03;;;1.50;;
74204;SDS011;62564;52.678;4.900;2023-05-10T10:41:38;3.63;;;2.10;;
74204;SDS011;62564;52.678;4.900;2023-05-10T11:00:18;4.55;;;4.10;;
74204;SDS011;62564;52.678;4.900;2023-05-10T11:02:48;3.55;;;2.20;;
74204;SDS011;62564;52.678;4.900;2023-05-10T11:05:24;3.50;;;2.25;;
74204;SDS011;62564;52.678;4.900;2023-05-10T11:08:06;3.58;;;1.92;;
74204;SDS011;62564;52.678;4.900;2023-05-10T11:10:33;3.67;;;1.88;;
74204;SDS011;62564;52.678;4.900;2023-05-10T11:13:03;3.42;;;1.80;;
74204;SDS011;62564;52.678;4.900;2023-05-10T11:15:32;3.88;;;2.47;;
74204;SDS011;62564;52.678;4.900;2023-05-10T11:17:59;4.28;;;1.85;;
74204;SDS011;62564;52.678;4.900;2023-05-10T11:20:27;3.55;;;1.95;;
74204;SDS011;62564;52.678;4.900;2023-05-10T11:22:58;3.00;;;1.33;;
74204;SDS011;62564;52.678;4.900;2023-05-10T11:25:40;3.10;;;1.67;;
74204;SDS011;62564;52.678;4.900;2023-05-10T11:28:11;2.95;;;1.55;;
74204;SDS011;62564;52.678;4.900;2023-05-10T11:30:38;3.13;;;1.50;;
74204;SDS011;62564;52.678;4.900;2023-05-10T11:33:04;3.83;;;2.08;;
74204;SDS011;62564;52.678;4.900;2023-05-10T11:35:30;3.88;;;1.88;;
74204;SDS011;62564;52.678;4.900;2023-05-10T11:37:56;3.40;;;1.90;;
74204;SDS011;62564;52.678;4.900;2023-05-10T11:40:21;3.10;;;1.53;;
74204;SDS011;62564;52.678;4.900;2023-05-10T11:42:49;3.42;;;1.60;;
74204;SDS011;62564;52.678;4.900;2023-05-10T11:45:15;3.42;;;1.65;;
74204;SDS011;62564;52.678;4.900;2023-05-10T11:47:40;3.17;;;1.58;;
74204;SDS011;62564;52.678;4.900;2023-05-10T11:50:08;3.97;;;1.70;;
74204;SDS011;62564;52.678;4.900;2023-05-10T11:52:36;3.85;;;2.28;;
74204;SDS011;62564;52.678;4.900;2023-05-10T11:55:02;4.63;;;3.00;;
74204;SDS011;62564;52.678;4.900;2023-05-10T11:57:28;2.78;;;1.25;;
74204;SDS011;62564;52.678;4.900;2023-05-10T11:59:53;3.03;;;1.80;;
74204;SDS011;62564;52.678;4.900;2023-05-10T12:02:20;3.17;;;2.00;;
74204;SDS011;62564;52.678;4.900;2023-05-10T12:04:45;3.47;;;2.00;;
74204;SDS011;62564;52.678;4.900;2023-05-10T12:07:11;3.72;;;1.50;;
74204;SDS011;62564;52.678;4.900;2023-05-10T12:09:36;3.37;;;1.90;;
74204;SDS011;62564;52.678;4.900;2023-05-10T12:12:01;3.97;;;2.25;;
74204;SDS011;62564;52.678;4.900;2023-05-10T12:14:27;3.28;;;1.73;;
74204;SDS011;62564;52.678;4.900;2023-05-10T12:16:53;4.45;;;2.00;;
74204;SDS011;62564;52.678;4.900;2023-05-10T12:19:18;4.93;;;2.23;;
74204;SDS011;62564;52.678;4.900;2023-05-10T12:21:46;4.38;;;2.22;;
74204;SDS011;62564;52.678;4.900;2023-05-10T12:24:12;3.83;;;1.83;;
74204;SDS011;62564;52.678;4.900;2023-05-10T12:26:37;4.47;;;2.40;;
74204;SDS011;62564;52.678;4.900;2023-05-10T12:29:15;4.03;;;1.98;;
74204;SDS011;62564;52.678;4.900;2023-05-10T12:32:03;4.45;;;1.90;;
74204;SDS011;62564;52.678;4.900;2023-05-10T12:34:30;3.70;;;2.03;;
74204;SDS011;62564;52.678;4.900;2023-05-10T12:36:59;3.20;;;1.90;;
74204;SDS011;62564;52.678;4.900;2023-05-10T12:39:25;4.25;;;2.40;;
74204;SDS011;62564;52.678;4.900;2023-05-10T12:41:50;4.32;;;3.90;;
74204;SDS011;62564;52.678;4.900;2023-05-10T12:44:16;3.67;;;1.77;;
74204;SDS011;62564;52.678;4.900;2023-05-10T12:46:42;3.70;;;1.90;;
74204;SDS011;62564;52.678;4.900;2023-05-10T12:49:07;4.37;;;2.13;;
74204;SDS011;62564;52.678;4.900;2023-05-10T12:51:33;3.43;;;2.20;;
74204;SDS011;62564;52.678;4.900;2023-05-10T12:53:58;4.17;;;2.40;;
74204;SDS011;62564;52.678;4.900;2023-05-10T12:56:23;3.57;;;3.03;;
74204;SDS011;62564;52.678;4.900;2023-05-10T12:58:49;3.88;;;2.13;;
74204;SDS011;62564;52.678;4.900;2023-05-10T13:01:14;3.60;;;2.75;;
74204;SDS011;62564;52.678;4.900;2023-05-10T13:03:40;3.42;;;1.42;;
74204;SDS011;62564;52.678;4.900;2023-05-10T13:06:05;3.70;;;2.40;;
74204;SDS011;62564;52.678;4.900;2023-05-10T13:08:31;4.43;;;2.33;;
74204;SDS011;62564;52.678;4.900;2023-05-10T13:10:58;3.63;;;1.70;;
74204;SDS011;62564;52.678;4.900;2023-05-10T13:13:24;3.97;;;1.60;;
74204;SDS011;62564;52.678;4.900;2023-05-10T13:15:49;3.05;;;2.00;;
74204;SDS011;62564;52.678;4.900;2023-05-10T13:18:15;3.53;;;1.85;;
74204;SDS011;62564;52.678;4.900;2023-05-10T13:20:40;4.50;;;1.90;;
74204;SDS011;62564;52.678;4.900;2023-05-10T13:23:05;3.40;;;2.08;;
74204;SDS011;62564;52.678;4.900;2023-05-10T13:25:31;3.20;;;1.40;;
74204;SDS011;62564;52.678;4.900;2023-05-10T13:27:56;3.40;;;2.20;;
74204;SDS011;62564;52.678;4.900;2023-05-10T13:30:21;2.90;;;1.50;;
74204;SDS011;62564;52.678;4.900;2023-05-10T13:32:48;3.90;;;1.92;;
74204;SDS011;62564;52.678;4.900;2023-05-10T13:35:14;4.07;;;1.70;;
74204;SDS011;62564;52.678;4.900;2023-05-10T13:37:39;2.88;;;2.30;;
74204;SDS011;62564;52.678;4.900;2023-05-10T13:40:05;3.03;;;1.50;;
74204;SDS011;62564;52.678;4.900;2023-05-10T13:42:31;3.38;;;2.15;;
74204;SDS011;62564;52.678;4.900;2023-05-10T13:44:58;2.80;;;1.33;;
74204;SDS011;62564;52.678;4.900;2023-05-10T13:47:24;3.30;;;1.58;;
74204;SDS011;62564;52.678;4.900;2023-05-10T13:49:49;3.42;;;1.45;;
74204;SDS011;62564;52.678;4.900;2023-05-10T13:52:14;2.37;;;1.40;;
74204;SDS011;62564;52.678;4.900;2023-05-10T13:54:40;2.67;;;1.77;;
74204;SDS011;62564;52.678;4.900;2023-05-10T13:57:05;2.83;;;1.65;;
74204;SDS011;62564;52.678;4.900;2023-05-10T13:59:31;3.78;;;2.45;;
74204;SDS011;62564;52.678;4.900;2023-05-10T14:01:57;2.65;;;2.03;;
74204;SDS011;62564;52.678;4.900;2023-05-10T14:04:23;3.33;;;2.03;;
74204;SDS011;62564;52.678;4.900;2023-05-10T14:06:49;2.85;;;1.60;;
74204;SDS011;62564;52.678;4.900;2023-05-10T14:09:14;2.87;;;1.43;;
74204;SDS011;62564;52.678;4.900;2023-05-10T14:11:39;2.33;;;1.27;;
74204;SDS011;62564;52.678;4.900;2023-05-10T14:14:08;3.10;;;1.48;;
74204;SDS011;62564;52.678;4.900;2023-05-10T14:16:33;3.05;;;1.10;;
74204;SDS011;62564;52.678;4.900;2023-05-10T14:18:59;2.43;;;1.70;;
74204;SDS011;62564;52.678;4.900;2023-05-10T14:21:24;2.87;;;1.60;;
74204;SDS011;62564;52.678;4.900;2023-05-10T14:23:49;2.33;;;1.50;;
74204;SDS011;62564;52.678;4.900;2023-05-10T14:26:15;2.77;;;1.20;;
74204;SDS011;62564;52.678;4.900;2023-05-10T14:28:40;2.75;;;1.40;;
74204;SDS011;62564;52.678;4.900;2023-05-10T14:31:05;2.30;;;1.45;;
74204;SDS011;62564;52.678;4.900;2023-05-10T14:33:31;2.73;;;1.83;;
74204;SDS011;62564;52.678;4.900;2023-05-10T14:35:56;1.80;;;1.00;;
74204;SDS011;62564;52.678;4.900;2023-05-10T14:38:22;3.22;;;1.33;;
74204;SDS011;62564;52.678;4.900;2023-05-10T14:40:47;5.13;;;2.20;;
74204;SDS011;62564;52.678;4.900;2023-05-10T14:43:12;10.17;;;1.57;;
74204;SDS011;62564;52.678;4.900;2023-05-10T14:45:38;6.60;;;1.80;;
74204;SDS011;62564;52.678;4.900;2023-05-10T14:48:03;9.20;;;1.83;;
74204;SDS011;62564;52.678;4.900;2023-05-10T14:50:29;7.20;;;1.85;;
74204;SDS011;62564;52.678;4.900;2023-05-10T14:52:55;6.07;;;1.30;;
74204;SDS011;62564;52.678;4.900;2023-05-10T14:55:21;5.68;;;1.63;;
74204;SDS011;62564;52.678;4.900;2023-05-10T14:57:46;4.70;;;1.30;;
74204;SDS011;62564;52.678;4.900;2023-05-10T15:00:12;6.57;;;2.50;;
74204;SDS011;62564;52.678;4.900;2023-05-10T15:02:40;3.58;;;1.23;;
74204;SDS011;62564;52.678;4.900;2023-05-10T15:05:06;5.07;;;1.52;;
74204;SDS011;62564;52.678;4.900;2023-05-10T15:07:32;4.70;;;1.25;;
74204;SDS011;62564;52.678;4.900;2023-05-10T15:09:57;4.40;;;1.70;;
74204;SDS011;62564;52.678;4.900;2023-05-10T15:12:22;2.90;;;1.20;;
74204;SDS011;62564;52.678;4.900;2023-05-10T15:14:47;6.57;;;1.77;;
74204;SDS011;62564;52.678;4.900;2023-05-10T15:17:13;3.53;;;1.03;;
74204;SDS011;62564;52.678;4.900;2023-05-10T15:19:38;3.90;;;1.07;;
74204;SDS011;62564;52.678;4.900;2023-05-10T15:22:04;3.60;;;1.00;;